עמוד ראשי
METAR-TAF:

METAR-TAF

שדות תעופה :

Catacamas, הונדורס

קו רוחב: 14-54N, קו אורך: 085-56W, גובה: 442מטר

תצפית מזג אוויר נוכחית

הדו"ח נערך לפני 35דקות, בשעה 16:00 UTC
רוח 3קשר מכיוון צפון-מזרח
טמפרטורת 27 צלסיוס
לחות 70%
לחץ 1015 hPa
ראות 10 קילומטר או יותר
עננים פזורים בגובה 2800רגל
עננים בינוניים בגובה 8000רגל

METAR: MHCA 241600Z 04003KT 9999 SCT028 BKN080 27/21 Q1015

זמן: 10:35 (16:35 UTC)


TAF: חסר

תצפיות ותחזיות מזג אוויר לגבי יותר מ- 4,000 שדות תעופה ברחבי העולם. דוחות METAR ו- TAF.

התחנות הזמינות מסומנות בנקודות צהובות ואדומות על גבי המפה.

העבר את העכבר לנקודה הצבעונית על מנת לראות את שם התחנה.

לאחר מכן, לחץ כדי לראות את תוכן ואת תחזיות מזג האוויר.

כדי לשנות את המפה: לחץ על הכפתורים הירוקים עם הפלוס השחור כדי להתקרב; על הכפתור הירוק עם המקף כדי להתרחק; או בחיצים הירוקים למפות סמוכות.


METAR-TAF: